createdAt,value
2023-07-03T00:01:59.580Z,7.03
2023-07-03T00:04:48.524Z,6.72
2023-07-03T00:07:37.607Z,7.30
2023-07-03T00:10:27.832Z,7.22
2023-07-03T00:13:16.703Z,7.00
2023-07-03T00:16:06.840Z,6.95
2023-07-03T00:18:57.257Z,7.50
2023-07-03T00:21:46.024Z,6.88
2023-07-03T00:24:35.106Z,7.70
2023-07-03T00:27:25.276Z,6.55
2023-07-03T00:30:14.586Z,7.60
2023-07-03T00:33:03.310Z,7.95
2023-07-03T00:35:52.336Z,9.55
2023-07-03T00:38:41.210Z,8.70
2023-07-03T00:41:30.005Z,8.40
2023-07-03T00:44:22.005Z,7.43
2023-07-03T00:47:12.990Z,7.65
2023-07-03T00:50:01.647Z,8.00
2023-07-03T00:52:55.762Z,7.45
2023-07-03T00:55:44.938Z,7.30
2023-07-03T00:58:33.951Z,7.53
2023-07-03T01:01:35.326Z,7.32
2023-07-03T01:04:31.792Z,7.20
2023-07-03T01:07:24.667Z,7.35
2023-07-03T01:10:16.668Z,7.65
2023-07-03T01:13:09.365Z,7.88
2023-07-03T01:16:00.499Z,8.27
2023-07-03T01:18:55.030Z,7.65
2023-07-03T01:21:52.432Z,8.10
2023-07-03T01:24:46.083Z,8.18
2023-07-03T01:27:37.984Z,7.55
2023-07-03T01:30:29.903Z,7.10
2023-07-03T01:33:26.396Z,7.90
2023-07-03T01:36:15.268Z,7.60
2023-07-03T01:39:05.538Z,7.75
2023-07-03T01:41:56.594Z,7.25
2023-07-03T01:44:45.336Z,7.68
2023-07-03T01:47:34.281Z,7.00
2023-07-03T01:50:26.150Z,7.88
2023-07-03T01:53:28.113Z,7.55
2023-07-03T01:56:24.520Z,7.90
2023-07-03T01:59:16.240Z,7.22
2023-07-03T02:02:09.863Z,8.70
2023-07-03T02:05:05.160Z,7.75
2023-07-03T02:07:58.939Z,8.10
2023-07-03T02:10:48.160Z,8.10
2023-07-03T02:13:36.975Z,8.18
2023-07-03T02:16:30.574Z,8.50
2023-07-03T02:19:20.347Z,8.07
2023-07-03T02:22:09.282Z,7.65
2023-07-03T02:24:57.990Z,7.65
2023-07-03T02:27:46.690Z,7.70
2023-07-03T02:30:35.617Z,8.52
2023-07-03T02:33:25.812Z,8.55
2023-07-03T02:36:14.540Z,8.05
2023-07-03T02:39:05.614Z,7.50
2023-07-03T02:41:54.423Z,8.45
2023-07-03T02:44:43.034Z,7.68
2023-07-03T02:47:36.559Z,7.18
2023-07-03T02:50:26.727Z,7.90
2023-07-03T02:53:15.542Z,7.68
2023-07-03T02:56:04.215Z,7.95
2023-07-03T02:58:53.023Z,8.10
2023-07-03T03:01:41.653Z,8.40
2023-07-03T03:04:30.278Z,6.85
2023-07-03T03:07:20.770Z,7.75
2023-07-03T03:10:10.495Z,8.25
2023-07-03T03:12:59.224Z,8.45
2023-07-03T03:15:47.930Z,8.18
2023-07-03T03:18:37.292Z,8.13
2023-07-03T03:21:26.619Z,8.23
2023-07-03T03:24:16.902Z,7.70
2023-07-03T03:27:07.780Z,7.90
2023-07-03T03:29:56.494Z,7.75
2023-07-03T03:32:45.965Z,7.93
2023-07-03T03:35:34.925Z,7.63
2023-07-03T03:38:24.085Z,8.18
2023-07-03T03:41:15.848Z,8.63
2023-07-03T03:44:04.629Z,7.80
2023-07-03T03:46:55.136Z,7.03
2023-07-03T03:49:43.957Z,8.35
2023-07-03T03:52:32.625Z,8.27
2023-07-03T03:55:21.479Z,9.00
2023-07-03T03:58:12.109Z,8.38
2023-07-03T04:01:02.126Z,8.35
2023-07-03T04:03:54.019Z,8.10
2023-07-03T04:06:42.994Z,7.40
2023-07-03T04:09:31.651Z,8.20
2023-07-03T04:12:20.427Z,7.72
2023-07-03T04:15:11.264Z,7.63
2023-07-03T04:18:00.016Z,7.60
2023-07-03T04:20:49.608Z,7.43
2023-07-03T04:23:38.307Z,8.07
2023-07-03T04:26:27.300Z,7.95
2023-07-03T04:29:19.038Z,7.00
2023-07-03T04:32:09.749Z,7.90
2023-07-03T04:35:01.858Z,9.38
2023-07-03T04:37:51.377Z,8.80
2023-07-03T04:40:40.216Z,8.82
2023-07-03T04:43:31.047Z,7.47
2023-07-03T04:46:25.097Z,8.40
2023-07-03T04:49:15.285Z,8.77
2023-07-03T04:52:06.079Z,8.38
2023-07-03T04:54:54.725Z,8.20
2023-07-03T04:57:43.423Z,8.10
2023-07-03T05:00:32.270Z,9.73
2023-07-03T05:03:21.047Z,8.98
2023-07-03T05:06:11.225Z,8.70
2023-07-03T05:09:00.025Z,8.45
2023-07-03T05:11:50.014Z,9.30
2023-07-03T05:14:38.695Z,8.95
2023-07-03T05:17:27.380Z,8.18
2023-07-03T05:20:19.270Z,8.98
2023-07-03T05:23:09.307Z,8.13
2023-07-03T05:25:58.007Z,8.50
2023-07-03T05:28:46.834Z,9.60
2023-07-03T05:31:35.493Z,8.90
2023-07-03T05:34:24.215Z,8.30
2023-07-03T05:37:12.832Z,8.77
2023-07-03T05:40:04.971Z,8.25
2023-07-03T05:42:53.722Z,8.48
2023-07-03T05:45:43.099Z,8.00
2023-07-03T05:48:31.756Z,8.70
2023-07-03T05:51:20.439Z,8.30
2023-07-03T05:54:09.064Z,8.18
2023-07-03T05:57:03.322Z,8.60
2023-07-03T05:59:51.986Z,8.43
2023-07-03T06:02:40.784Z,8.75
2023-07-03T06:05:29.766Z,8.40
2023-07-03T06:08:18.449Z,8.00
2023-07-03T06:11:07.061Z,8.43
2023-07-03T06:13:58.307Z,7.97
2023-07-03T06:16:48.132Z,8.93
2023-07-03T06:19:36.806Z,7.80
2023-07-03T06:22:25.659Z,8.48
2023-07-03T06:25:14.395Z,7.22
2023-07-03T06:28:03.295Z,8.07
2023-07-03T06:30:55.207Z,8.48
2023-07-03T06:33:44.107Z,8.10
2023-07-03T06:36:35.042Z,8.38
2023-07-03T06:39:23.759Z,8.75
2023-07-03T06:42:12.520Z,8.98
2023-07-03T06:45:01.172Z,7.75
2023-07-03T06:47:51.224Z,8.52
2023-07-03T06:50:39.848Z,7.57
2023-07-03T06:53:28.701Z,7.38
2023-07-03T06:56:17.420Z,7.30
2023-07-03T06:59:06.092Z,6.90
2023-07-03T07:01:54.808Z,7.20
2023-07-03T07:04:46.570Z,6.90
2023-07-03T07:07:35.350Z,6.13
2023-07-03T07:10:25.503Z,6.47
2023-07-03T07:13:14.999Z,7.05
2023-07-03T07:16:03.656Z,5.78
2023-07-03T07:18:54.497Z,6.40
2023-07-03T07:21:54.178Z,7.13
2023-07-03T07:24:42.893Z,6.53
2023-07-03T07:27:31.678Z,6.30
2023-07-03T07:30:20.366Z,6.00
2023-07-03T07:33:09.187Z,5.18
2023-07-03T07:35:57.931Z,5.63
2023-07-03T07:38:47.997Z,5.65
2023-07-03T07:41:37.516Z,5.90
2023-07-03T07:44:28.127Z,5.38
2023-07-03T07:47:17.189Z,6.53
2023-07-03T07:50:07.671Z,5.38
2023-07-03T07:52:57.637Z,5.40
2023-07-03T07:55:50.904Z,6.10
2023-07-03T07:58:40.140Z,5.05
2023-07-03T08:01:29.034Z,5.65
2023-07-03T08:04:17.855Z,5.53
2023-07-03T08:07:07.268Z,6.57
2023-07-03T08:09:56.620Z,5.55
2023-07-03T08:12:47.638Z,5.40
2023-07-03T08:15:36.659Z,5.53
2023-07-03T08:18:27.077Z,5.28
2023-07-03T08:21:15.886Z,4.95
2023-07-03T08:24:05.367Z,5.45
2023-07-03T08:26:55.578Z,5.53
2023-07-03T08:29:45.642Z,4.45
2023-07-03T08:32:34.439Z,4.90
2023-07-03T08:38:15.763Z,4.78
2023-07-03T08:41:04.601Z,4.50
2023-07-03T08:43:59.064Z,4.55
2023-07-03T08:47:09.857Z,4.93
2023-07-03T08:50:06.182Z,4.00
2023-07-03T08:52:59.440Z,4.78
2023-07-03T08:55:54.005Z,4.82
2023-07-03T08:58:43.096Z,4.57
2023-07-03T09:01:37.803Z,4.40
2023-07-03T09:04:49.634Z,5.15
2023-07-03T09:07:43.466Z,4.35
2023-07-03T09:10:39.733Z,4.72
2023-07-03T09:13:35.342Z,3.85
2023-07-03T09:16:26.081Z,4.43
2023-07-03T09:19:22.409Z,3.95
2023-07-03T09:22:21.408Z,4.75
2023-07-03T09:25:18.236Z,4.53
2023-07-03T09:28:10.435Z,4.43
2023-07-03T09:30:59.890Z,4.13
2023-07-03T09:33:50.327Z,4.85
2023-07-03T09:36:44.980Z,4.03
2023-07-03T09:39:35.091Z,4.57
2023-07-03T09:42:26.493Z,4.60
2023-07-03T09:45:17.635Z,4.25
2023-07-03T09:48:16.544Z,3.90
2023-07-03T09:51:08.716Z,4.13
2023-07-03T09:54:00.244Z,4.55
2023-07-03T09:56:51.160Z,3.92
2023-07-03T09:59:39.773Z,4.38
2023-07-03T10:08:29.524Z,4.85
2023-07-03T10:11:27.349Z,5.00
2023-07-03T10:14:25.329Z,4.88
2023-07-03T10:17:15.094Z,4.70
2023-07-03T10:20:11.054Z,4.68
2023-07-03T10:23:03.877Z,4.97
2023-07-03T10:25:57.242Z,4.88
2023-07-03T10:28:49.784Z,4.05
2023-07-03T10:31:46.308Z,4.93
2023-07-03T10:34:40.922Z,4.18
2023-07-03T10:37:31.365Z,4.22
2023-07-03T10:40:24.293Z,4.32
2023-07-03T10:43:15.380Z,4.30
2023-07-03T10:46:09.005Z,4.40
2023-07-03T10:49:04.190Z,4.70
2023-07-03T10:52:02.806Z,4.60
2023-07-03T10:54:58.136Z,3.90
2023-07-03T10:57:54.846Z,4.53
2023-07-03T11:00:52.701Z,3.85
2023-07-03T11:03:56.782Z,4.50
2023-07-03T11:07:05.646Z,3.70
2023-07-03T11:09:59.894Z,4.38
2023-07-03T11:12:56.828Z,4.55
2023-07-03T11:15:52.807Z,3.55
2023-07-03T11:25:12.532Z,3.90
2023-07-03T11:28:11.171Z,3.90
2023-07-03T11:31:02.506Z,4.25
2023-07-03T11:39:52.726Z,3.60
2023-07-03T11:45:33.457Z,3.45
2023-07-03T11:48:35.653Z,3.78
2023-07-03T11:51:36.844Z,3.15
2023-07-03T11:54:29.047Z,3.72
2023-07-03T11:57:32.077Z,3.60
2023-07-03T12:00:23.795Z,3.38
2023-07-03T12:03:12.924Z,3.50
2023-07-03T12:06:03.262Z,3.40
2023-07-03T12:08:51.917Z,3.03
2023-07-03T12:12:14.781Z,3.83
2023-07-03T12:15:10.479Z,19.73
2023-07-03T12:18:04.562Z,19.00
2023-07-03T12:20:59.707Z,16.42
2023-07-03T12:23:52.369Z,16.67
2023-07-03T12:26:53.253Z,12.93
2023-07-03T12:29:49.360Z,8.85
2023-07-03T12:32:39.149Z,7.93
2023-07-03T12:35:29.919Z,7.30
2023-07-03T12:38:20.507Z,6.25
2023-07-03T12:41:10.572Z,6.25
2023-07-03T12:44:08.186Z,6.65
2023-07-03T12:46:58.432Z,6.22
2023-07-03T12:49:59.918Z,5.95
2023-07-03T12:52:58.019Z,6.07
2023-07-03T12:55:53.123Z,5.43
2023-07-03T12:58:43.305Z,5.32
2023-07-03T13:01:33.544Z,5.30
2023-07-03T13:04:29.486Z,4.90
2023-07-03T13:07:18.386Z,5.05
2023-07-03T13:10:13.820Z,6.07
2023-07-03T13:13:10.308Z,3.83
2023-07-03T13:16:00.624Z,3.83
2023-07-03T13:19:02.516Z,3.25
2023-07-03T13:21:53.667Z,5.28
2023-07-03T13:24:45.760Z,3.45
2023-07-03T13:27:35.881Z,3.28
2023-07-03T13:30:28.669Z,3.45
2023-07-03T13:33:30.679Z,3.17
2023-07-03T13:36:25.680Z,3.58
2023-07-03T13:39:16.491Z,3.75
2023-07-03T13:42:11.469Z,3.85
2023-07-03T13:45:01.343Z,3.30
2023-07-03T13:47:50.029Z,3.55
2023-07-03T13:50:40.064Z,3.50
2023-07-03T13:53:29.005Z,3.17
2023-07-03T13:56:18.007Z,3.42
2023-07-03T13:59:10.398Z,4.03
2023-07-03T14:01:59.467Z,3.38
2023-07-03T14:04:48.182Z,3.17
2023-07-03T14:07:38.269Z,3.30
2023-07-03T14:10:27.207Z,3.15
2023-07-03T14:13:15.963Z,3.63
2023-07-03T14:16:07.865Z,3.13
2023-07-03T14:18:56.789Z,3.53
2023-07-03T14:21:45.491Z,3.50
2023-07-03T14:24:36.808Z,4.00
2023-07-03T14:27:25.928Z,2.90
2023-07-03T14:30:16.307Z,3.20
2023-07-03T14:33:05.201Z,3.03
2023-07-03T14:35:54.168Z,3.20
2023-07-03T14:38:42.863Z,3.85
2023-07-03T14:41:32.989Z,3.05
2023-07-03T14:44:21.684Z,2.75
2023-07-03T14:47:13.024Z,3.20
2023-07-03T14:50:01.718Z,3.03
2023-07-03T14:52:56.963Z,2.97
2023-07-03T14:55:46.502Z,2.72
2023-07-03T14:58:36.616Z,2.67
2023-07-03T15:01:28.083Z,3.58
2023-07-03T15:04:17.089Z,2.55
2023-07-03T15:07:09.291Z,2.60
2023-07-03T15:09:58.219Z,2.63
2023-07-03T15:12:47.330Z,3.05
2023-07-03T15:15:37.811Z,2.80
2023-07-03T15:18:27.231Z,2.88
2023-07-03T15:21:15.898Z,3.17
2023-07-03T15:24:04.675Z,3.20
2023-07-03T15:26:53.362Z,2.72
2023-07-03T15:29:42.249Z,2.78
2023-07-03T15:32:32.444Z,2.42
2023-07-03T15:35:21.681Z,3.05
2023-07-03T15:38:10.363Z,2.45
2023-07-03T15:41:00.979Z,2.47
2023-07-03T15:43:49.992Z,2.28
2023-07-03T15:46:40.569Z,2.47
2023-07-03T15:49:32.580Z,3.30
2023-07-03T15:52:23.330Z,2.40
2023-07-03T15:55:12.037Z,2.42
2023-07-03T15:58:00.659Z,2.35
2023-07-03T16:00:58.066Z,2.30
2023-07-03T16:03:47.587Z,2.60
2023-07-03T16:06:38.786Z,2.35
2023-07-03T16:09:27.637Z,2.85
2023-07-03T16:12:16.932Z,2.13
2023-07-03T16:15:07.629Z,2.00
2023-07-03T16:17:56.355Z,2.53
2023-07-03T16:20:45.098Z,2.25
2023-07-03T16:23:36.019Z,2.00
2023-07-03T16:26:25.789Z,2.10
2023-07-03T16:29:14.508Z,2.38
2023-07-03T16:32:03.332Z,2.60
2023-07-03T16:34:52.146Z,2.35
2023-07-03T16:37:40.902Z,2.65
2023-07-03T16:40:32.081Z,2.53
2023-07-03T16:43:20.678Z,2.28
2023-07-03T16:46:11.625Z,1.90
2023-07-03T16:49:01.237Z,2.30
2023-07-03T16:51:49.902Z,2.38
2023-07-03T16:54:38.749Z,2.00
2023-07-03T16:57:28.851Z,1.98
2023-07-03T17:00:17.731Z,2.25
2023-07-03T17:03:07.238Z,1.90
2023-07-03T17:05:56.262Z,2.22
2023-07-03T17:08:44.980Z,2.78
2023-07-03T17:11:34.172Z,2.47
2023-07-03T17:14:25.417Z,2.58
2023-07-03T17:17:16.127Z,2.42
2023-07-03T17:20:06.973Z,2.20
2023-07-03T17:22:55.706Z,2.40
2023-07-03T17:25:44.762Z,2.22
2023-07-03T17:28:33.746Z,2.40
2023-07-03T17:31:26.316Z,1.83
2023-07-03T17:34:15.696Z,2.00
2023-07-03T17:37:04.391Z,1.77
2023-07-03T17:39:53.032Z,2.05
2023-07-03T17:42:41.694Z,1.70
2023-07-03T17:45:30.474Z,2.30
2023-07-03T17:48:20.876Z,2.28
2023-07-03T17:51:09.750Z,2.30
2023-07-03T17:53:58.429Z,1.80
2023-07-03T17:56:47.150Z,2.30
2023-07-03T17:59:35.783Z,2.63
2023-07-03T18:02:24.478Z,2.40
2023-07-03T18:05:14.668Z,2.10
2023-07-03T18:08:04.037Z,2.30
2023-07-03T18:10:53.508Z,2.53
2023-07-03T18:13:43.071Z,2.13
2023-07-03T18:16:31.831Z,2.28
2023-07-03T18:19:21.042Z,2.63
2023-07-03T18:22:11.160Z,2.85
2023-07-03T18:25:02.955Z,2.22
2023-07-03T18:27:52.088Z,2.10
2023-07-03T18:30:40.775Z,2.00
2023-07-03T18:33:29.637Z,2.65
2023-07-03T18:36:18.349Z,3.15
2023-07-03T18:39:08.623Z,1.73
2023-07-03T18:41:57.259Z,2.05
2023-07-03T18:44:46.079Z,2.58
2023-07-03T18:47:34.817Z,2.75
2023-07-03T18:50:23.786Z,1.90
2023-07-03T18:53:12.463Z,2.30
2023-07-03T18:56:02.518Z,2.70
2023-07-03T18:58:51.187Z,2.92
2023-07-03T19:01:41.984Z,2.63
2023-07-03T19:04:31.476Z,2.30
2023-07-03T19:07:20.489Z,2.35
2023-07-03T19:10:17.779Z,2.50
2023-07-03T19:13:09.232Z,2.40
2023-07-03T19:15:58.862Z,3.13
2023-07-03T19:18:48.353Z,2.65
2023-07-03T19:21:37.155Z,2.78
2023-07-03T19:24:25.782Z,2.78
2023-07-03T19:27:14.448Z,2.50
2023-07-03T19:30:04.952Z,2.83
2023-07-03T19:32:53.937Z,3.88
2023-07-03T19:35:43.382Z,4.82
2023-07-03T19:38:33.121Z,4.53
2023-07-03T19:41:21.915Z,5.75
2023-07-03T19:44:10.738Z,6.03
2023-07-03T19:47:00.824Z,6.55
2023-07-03T19:49:49.510Z,3.72
2023-07-03T19:52:38.720Z,3.63
2023-07-03T19:55:27.978Z,3.13
2023-07-03T19:58:17.658Z,3.15
2023-07-03T20:01:06.441Z,2.78
2023-07-03T20:03:56.670Z,2.70
2023-07-03T20:06:45.411Z,2.28
2023-07-03T20:09:34.035Z,2.95
2023-07-03T20:12:22.857Z,2.92
2023-07-03T20:15:12.102Z,2.95
2023-07-03T20:18:01.044Z,2.83
2023-07-03T20:20:51.277Z,4.85
2023-07-03T20:23:40.020Z,4.70
2023-07-03T20:26:28.920Z,8.23
2023-07-03T20:29:17.606Z,11.80
2023-07-03T20:32:08.152Z,7.13
2023-07-03T20:34:57.047Z,5.95
2023-07-03T20:37:47.057Z,4.50
2023-07-03T20:40:35.988Z,4.28
2023-07-03T20:43:24.813Z,5.38
2023-07-03T20:46:15.979Z,4.82
2023-07-03T20:49:04.973Z,4.60
2023-07-03T20:51:56.609Z,3.55
2023-07-03T20:55:05.096Z,3.60
2023-07-03T20:57:53.813Z,4.05
2023-07-03T21:00:42.517Z,3.72
2023-07-03T21:03:31.206Z,3.55
2023-07-03T21:06:21.543Z,3.78
2023-07-03T21:09:10.742Z,4.13
2023-07-03T21:12:00.837Z,3.20
2023-07-03T21:14:50.516Z,3.95
2023-07-03T21:17:39.406Z,3.78
2023-07-03T21:20:29.326Z,3.58
2023-07-03T21:23:17.995Z,3.40
2023-07-03T21:26:07.281Z,3.20
2023-07-03T21:28:57.417Z,4.57
2023-07-03T21:31:46.159Z,4.03
2023-07-03T21:34:34.840Z,3.70
2023-07-03T21:37:23.487Z,3.83
2023-07-03T21:40:13.428Z,3.00
2023-07-03T21:43:02.079Z,3.22
2023-07-03T21:46:02.277Z,3.60
2023-07-03T21:48:56.831Z,3.30
2023-07-03T21:51:45.667Z,3.72
2023-07-03T21:54:34.304Z,3.17
2023-07-03T21:57:22.899Z,4.35
2023-07-03T22:00:14.282Z,3.78
2023-07-03T22:03:04.588Z,3.75
2023-07-03T22:05:55.248Z,2.78
2023-07-03T22:08:44.076Z,4.07
2023-07-03T22:11:38.002Z,3.33
2023-07-03T22:14:26.620Z,4.38
2023-07-03T22:17:15.338Z,3.33
2023-07-03T22:20:09.597Z,3.25
2023-07-03T22:22:58.362Z,3.47
2023-07-03T22:25:48.285Z,3.13
2023-07-03T22:28:36.892Z,3.25
2023-07-03T22:31:27.602Z,3.15
2023-07-03T22:34:16.461Z,2.47
2023-07-03T22:37:07.267Z,3.92
2023-07-03T22:39:55.963Z,3.65
2023-07-03T22:42:44.610Z,3.20
2023-07-03T22:45:33.591Z,3.72
2023-07-03T22:48:22.334Z,2.90
2023-07-03T22:51:12.244Z,2.55
2023-07-03T22:54:02.363Z,3.05
2023-07-03T22:56:51.259Z,2.70
2023-07-03T22:59:39.983Z,3.85
2023-07-03T23:02:29.552Z,3.47
2023-07-03T23:05:18.998Z,3.10
2023-07-03T23:08:07.778Z,3.55
2023-07-03T23:10:57.953Z,3.08
2023-07-03T23:13:46.595Z,3.38
2023-07-03T23:16:35.732Z,2.78
2023-07-03T23:19:25.729Z,2.83
2023-07-03T23:22:14.343Z,2.40
2023-07-03T23:25:03.031Z,2.63
2023-07-03T23:27:53.217Z,2.95
2023-07-03T23:30:41.952Z,2.80
2023-07-03T23:33:31.485Z,2.70
2023-07-03T23:36:23.857Z,2.75
2023-07-03T23:39:13.885Z,2.10
2023-07-03T23:42:02.535Z,2.75
2023-07-03T23:44:52.640Z,2.17
2023-07-03T23:47:41.319Z,2.55
2023-07-03T23:50:30.394Z,2.60
2023-07-03T23:53:19.060Z,2.30
2023-07-03T23:56:10.778Z,2.55
2023-07-03T23:59:01.449Z,2.10
